Time;durP1;ratioP1;P1;durP2;ratioP2;P2;SDS_P1;SDS_P2;PMS_P1;PMS_P2;Temp;Humidity;BMP_temperature;BMP_pressure;BME280_temperature;BME280_humidity;BME280_pressure;Samples;Min_cycle;Max_cycle;Signal;HPM_P1;HPM_P2
2023/09/30 00:02:19;;;;;;;3.58;1.20;;;20.40;54.80;;;;;;2357918;53;21040;-68
2023/09/30 00:04:46;;;;;;;3.95;1.15;;;20.40;54.90;;;;;;2591805;52;20922;-71
2023/09/30 00:07:12;;;;;;;3.87;1.05;;;20.40;54.70;;;;;;2617252;52;20918;-68
2023/09/30 00:09:39;;;;;;;3.42;0.95;;;20.40;54.70;;;;;;2595605;52;21410;-68
2023/09/30 00:12:06;;;;;;;3.03;0.82;;;20.50;54.80;;;;;;2579072;53;20979;-68
2023/09/30 00:14:34;;;;;;;4.35;1.17;;;20.50;54.70;;;;;;2588973;52;21070;-69
2023/09/30 00:17:01;;;;;;;3.35;1.30;;;20.50;54.80;;;;;;2342758;53;21439;-68
2023/09/30 00:19:32;;;;;;;4.50;1.27;;;20.50;54.90;;;;;;2589421;52;22905;-66
2023/09/30 00:21:59;;;;;;;4.75;1.20;;;20.50;54.80;;;;;;2342737;53;20972;-69
2023/09/30 00:24:26;;;;;;;4.40;1.35;;;20.50;55.00;;;;;;2342911;53;20960;-66
2023/09/30 00:26:53;;;;;;;3.62;1.27;;;20.50;54.90;;;;;;2342092;53;20969;-68
2023/09/30 00:29:19;;;;;;;3.20;1.12;;;20.50;55.50;;;;;;2591198;52;21017;-67
2023/09/30 00:31:46;;;;;;;3.65;1.10;;;20.50;54.90;;;;;;2355487;53;21898;-66
2023/09/30 00:34:13;;;;;;;3.33;1.00;;;20.60;55.00;;;;;;2588364;52;21385;-65
2023/09/30 01:02:29;;;;;;;1.58;0.50;;;20.60;55.00;;;;;;2582363;52;20991;-67
2023/09/30 01:04:55;;;;;;;3.10;0.65;;;20.60;54.20;;;;;;2621434;52;20899;-67
2023/09/30 01:07:34;;;;;;;3.30;1.08;;;20.50;54.40;;;;;;2622080;52;21002;-69
2023/09/30 01:10:02;;;;;;;3.95;1.27;;;20.50;55.00;;;;;;2611060;52;20959;-68
2023/09/30 01:12:31;;;;;;;4.57;1.27;;;20.50;55.00;;;;;;2604716;52;20942;-68
2023/09/30 01:14:59;;;;;;;3.25;1.30;;;20.50;55.20;;;;;;2370908;53;21784;-67
2023/09/30 01:17:28;;;;;;;4.72;1.30;;;20.50;55.20;;;;;;2622834;52;20950;-67
2023/09/30 01:19:56;;;;;;;3.85;1.25;;;20.50;55.20;;;;;;2370912;53;20934;-66
2023/09/30 01:22:24;;;;;;;5.18;1.30;;;20.50;55.80;;;;;;2355613;53;20990;-68
2023/09/30 01:24:51;;;;;;;3.65;1.55;;;20.50;55.10;;;;;;2365407;53;21494;-68
2023/09/30 01:27:19;;;;;;;2.90;0.85;;;20.50;55.20;;;;;;2370511;53;20967;-66
2023/09/30 01:29:47;;;;;;;5.10;1.08;;;20.50;55.30;;;;;;2623203;52;21346;-67
2023/09/30 01:32:13;;;;;;;2.90;1.10;;;20.50;55.30;;;;;;2589379;52;21008;-67
2023/09/30 01:34:40;;;;;;;3.25;1.08;;;20.50;55.30;;;;;;2589258;52;21358;-66
2023/09/30 01:37:06;;;;;;;2.83;1.00;;;20.50;55.30;;;;;;2589190;52;20917;-66
2023/09/30 01:39:34;;;;;;;4.25;1.10;;;20.50;55.30;;;;;;2589315;52;20960;-66
2023/09/30 01:42:02;;;;;;;3.55;1.17;;;20.50;55.20;;;;;;2589085;52;20937;-67
2023/09/30 01:44:29;;;;;;;3.47;1.10;;;20.50;55.30;;;;;;2588571;52;20928;-68
2023/09/30 01:46:56;;;;;;;3.05;0.90;;;20.50;55.40;;;;;;2588697;52;20917;-67
2023/09/30 01:49:24;;;;;;;3.87;1.10;;;20.50;55.30;;;;;;2338394;53;20961;-67
2023/09/30 01:51:51;;;;;;;3.17;1.08;;;20.50;55.30;;;;;;2586936;52;20928;-66
2023/09/30 01:54:19;;;;;;;3.83;1.25;;;20.40;55.20;;;;;;2342593;53;20940;-66
2023/09/30 01:56:45;;;;;;;3.67;1.17;;;20.40;55.20;;;;;;2616859;52;20931;-66
2023/09/30 01:59:11;;;;;;;4.00;1.30;;;20.40;55.20;;;;;;2370523;53;21341;-66
2023/09/30 02:01:38;;;;;;;4.40;1.12;;;20.40;55.20;;;;;;2622481;52;21367;-66
2023/09/30 02:04:06;;;;;;;3.95;1.08;;;20.30;55.20;;;;;;2622969;52;20969;-68
2023/09/30 02:06:36;;;;;;;3.90;0.90;;;20.30;55.20;;;;;;2370461;53;21941;-66
2023/09/30 02:09:04;;;;;;;2.62;1.00;;;20.30;55.20;;;;;;2622921;52;20997;-67
2023/09/30 02:11:30;;;;;;;2.90;0.95;;;20.30;55.30;;;;;;2370472;53;20914;-66
2023/09/30 02:13:58;;;;;;;3.25;0.80;;;20.30;55.30;;;;;;2622781;52;20927;-66
2023/09/30 02:16:25;;;;;;;4.50;1.30;;;20.20;55.30;;;;;;2362395;53;20918;-69
2023/09/30 02:18:53;;;;;;;2.83;1.00;;;20.20;55.30;;;;;;2371776;53;21065;-67
2023/09/30 02:21:19;;;;;;;4.25;0.80;;;20.20;55.50;;;;;;2614990;52;20984;-67
2023/09/30 02:23:48;;;;;;;3.28;0.90;;;20.20;55.60;;;;;;2343185;53;21059;-67
2023/09/30 02:26:15;;;;;;;4.35;1.08;;;20.20;55.60;;;;;;2607389;52;20925;-67
2023/09/30 02:28:42;;;;;;;2.92;0.90;;;20.20;55.60;;;;;;2589400;52;21041;-66
2023/09/30 02:31:12;;;;;;;3.08;1.20;;;20.20;55.60;;;;;;2588815;52;21032;-69
2023/09/30 02:33:39;;;;;;;2.58;0.70;;;20.10;55.60;;;;;;2589142;52;21371;-66
2023/09/30 02:36:08;;;;;;;4.70;1.17;;;20.20;55.70;;;;;;2342391;53;20975;-67
2023/09/30 02:38:37;;;;;;;2.60;0.90;;;20.10;55.70;;;;;;2589240;52;21550;-67
2023/09/30 02:41:05;;;;;;;2.60;1.02;;;20.10;55.70;;;;;;2342389;53;20925;-67
2023/09/30 02:43:33;;;;;;;2.80;0.80;;;20.10;55.70;;;;;;2589525;52;20912;-66
2023/09/30 02:45:59;;;;;;;2.58;0.88;;;20.10;55.70;;;;;;2342630;53;20943;-68
2023/09/30 02:48:26;;;;;;;2.28;0.80;;;20.10;55.80;;;;;;2588967;52;20985;-67
2023/09/30 02:50:54;;;;;;;4.03;0.90;;;19.90;55.60;;;;;;2589403;52;21015;-66
2023/09/30 02:53:22;;;;;;;3.50;1.10;;;20.00;55.70;;;;;;2607156;53;20970;-67
2023/09/30 02:55:49;;;;;;;2.62;1.00;;;20.10;55.90;;;;;;2589934;52;21411;-66
2023/09/30 02:58:18;;;;;;;3.97;1.30;;;20.10;56.10;;;;;;2589613;52;20967;-66
2023/09/30 03:00:49;;;;;;;4.80;1.37;;;20.10;56.30;;;;;;2343077;53;21039;-66
2023/09/30 03:03:17;;;;;;;2.47;0.80;;;20.10;56.50;;;;;;2356765;53;20985;-68
2023/09/30 03:05:45;;;;;;;2.87;0.90;;;20.10;56.30;;;;;;2600836;52;20933;-67
2023/09/30 03:08:11;;;;;;;2.60;0.75;;;20.00;56.20;;;;;;2350834;53;21004;-66
2023/09/30 03:10:40;;;;;;;3.17;1.20;;;20.10;56.40;;;;;;2588761;52;20932;-66
2023/09/30 03:13:08;;;;;;;2.90;1.10;;;20.10;56.50;;;;;;2605939;52;21008;-67
2023/09/30 03:15:35;;;;;;;3.03;1.17;;;20.10;56.60;;;;;;2342714;53;20925;-65
2023/09/30 03:18:03;;;;;;;2.58;1.02;;;20.10;57.20;;;;;;2588314;52;20980;-67
2023/09/30 03:20:30;;;;;;;3.05;1.17;;;20.10;56.60;;;;;;2588584;52;20968;-66
2023/09/30 03:23:14;;;;;;;2.17;0.73;;;20.10;56.60;;;;;;2589699;52;20924;-67
2023/09/30 03:25:42;;;;;;;2.20;0.80;;;20.10;56.80;;;;;;2342765;53;20972;-67
2023/09/30 03:28:09;;;;;;;3.28;1.20;;;20.10;56.50;;;;;;2344679;53;20941;-67
2023/09/30 03:30:36;;;;;;;2.20;0.90;;;20.10;57.10;;;;;;2588918;52;21481;-67
2023/09/30 03:33:04;;;;;;;3.40;1.10;;;20.10;56.50;;;;;;2589611;52;20896;-70
2023/09/30 03:35:32;;;;;;;2.92;1.00;;;20.10;56.50;;;;;;2588698;52;20909;-68
2023/09/30 03:37:59;;;;;;;2.90;1.10;;;20.10;56.50;;;;;;2352552;53;20937;-67
2023/09/30 03:40:28;;;;;;;3.53;1.17;;;20.10;56.50;;;;;;2349826;53;21114;-67
2023/09/30 03:42:55;;;;;;;2.80;0.90;;;20.10;56.50;;;;;;2343230;53;20919;-66
2023/09/30 03:45:21;;;;;;;3.37;0.80;;;20.10;56.50;;;;;;2588596;52;20926;-66
2023/09/30 03:47:48;;;;;;;2.47;0.82;;;20.10;56.50;;;;;;2598508;52;21529;-67
2023/09/30 03:50:14;;;;;;;3.40;1.10;;;20.10;56.50;;;;;;2366038;54;20954;-67
2023/09/30 03:52:44;;;;;;;4.40;1.12;;;20.10;56.60;;;;;;2366661;54;20933;-67
2023/09/30 03:55:14;;;;;;;3.87;1.03;;;20.10;56.60;;;;;;2592445;52;21015;-69
2023/09/30 03:57:40;;;;;;;4.68;1.55;;;20.10;56.60;;;;;;2615900;52;21141;-67
2023/09/30 04:00:11;;;;;;;2.80;0.88;;;20.10;56.70;;;;;;2617459;52;21704;-66
2023/09/30 04:02:42;;;;;;;3.30;0.70;;;20.10;56.80;;;;;;2616122;52;20990;-66
2023/09/30 04:05:11;;;;;;;3.28;1.10;;;20.10;56.80;;;;;;2589244;52;20919;-69
2023/09/30 04:07:38;;;;;;;3.17;0.98;;;20.10;56.80;;;;;;2589371;52;20975;-66
2023/09/30 04:10:06;;;;;;;2.92;0.90;;;20.10;56.90;;;;;;2589041;52;20926;-68
2023/09/30 04:12:32;;;;;;;3.87;1.23;;;20.10;57.00;;;;;;2588555;52;20918;-68
2023/09/30 04:15:00;;;;;;;3.37;0.90;;;20.10;56.90;;;;;;2344045;53;20934;-66
2023/09/30 04:17:27;;;;;;;3.72;0.90;;;20.10;56.90;;;;;;2343198;53;20940;-67
2023/09/30 04:19:53;;;;;;;3.62;1.00;;;20.10;56.90;;;;;;2588427;52;21679;-67
2023/09/30 04:22:21;;;;;;;2.65;1.00;;;20.10;57.00;;;;;;2342727;53;21438;-67
2023/09/30 04:24:50;;;;;;;2.70;0.80;;;20.10;57.00;;;;;;2342963;53;21017;-67
2023/09/30 04:27:19;;;;;;;2.87;0.97;;;20.10;57.00;;;;;;2343433;53;21449;-66
2023/09/30 04:29:45;;;;;;;2.50;0.80;;;20.10;57.00;;;;;;2343311;53;20981;-67
2023/09/30 04:32:15;;;;;;;3.37;1.05;;;20.20;57.20;;;;;;2589501;52;21461;-66
2023/09/30 04:34:41;;;;;;;3.03;0.93;;;20.20;57.30;;;;;;2589485;52;21052;-66
2023/09/30 04:37:09;;;;;;;3.80;1.27;;;20.20;57.40;;;;;;2342603;53;20969;-66
2023/09/30 04:39:35;;;;;;;4.68;1.00;;;20.20;57.40;;;;;;2597308;52;21115;-66
2023/09/30 04:42:03;;;;;;;2.25;0.80;;;20.20;57.40;;;;;;2602556;52;20929;-66
2023/09/30 04:44:31;;;;;;;2.55;1.00;;;20.20;57.40;;;;;;2601126;52;21055;-69
2023/09/30 04:46:58;;;;;;;3.50;1.17;;;20.20;57.40;;;;;;2356826;53;21457;-67
2023/09/30 04:49:24;;;;;;;3.72;1.00;;;20.20;57.40;;;;;;2593593;52;21395;-67
2023/09/30 04:51:51;;;;;;;3.53;0.80;;;20.20;57.40;;;;;;2601145;52;20901;-67
2023/09/30 04:54:20;;;;;;;2.28;0.80;;;20.20;57.40;;;;;;2350160;53;20969;-66
2023/09/30 04:56:47;;;;;;;3.08;1.00;;;20.20;57.40;;;;;;2343136;53;21796;-67
2023/09/30 04:59:14;;;;;;;2.53;0.82;;;20.20;57.40;;;;;;2589130;52;20924;-66
2023/09/30 05:01:42;;;;;;;2.20;0.80;;;20.20;57.40;;;;;;2589482;52;21180;-66
2023/09/30 05:04:09;;;;;;;2.67;0.80;;;20.20;57.50;;;;;;2588771;52;20988;-67
2023/09/30 05:06:36;;;;;;;2.72;0.95;;;20.30;57.70;;;;;;2588446;52;20905;-66
2023/09/30 05:09:02;;;;;;;2.05;0.90;;;20.20;57.60;;;;;;2607015;52;20992;-66
2023/09/30 05:11:29;;;;;;;3.05;0.95;;;20.30;57.70;;;;;;2341992;53;21678;-67
2023/09/30 05:13:55;;;;;;;2.37;0.82;;;20.30;57.80;;;;;;2587771;52;21004;-67
2023/09/30 05:16:27;;;;;;;3.75;0.85;;;20.30;57.70;;;;;;2588740;52;20973;-67
2023/09/30 05:18:56;;;;;;;2.28;0.82;;;20.30;58.30;;;;;;2342439;53;21122;-68
2023/09/30 05:21:22;;;;;;;3.00;0.90;;;20.30;57.60;;;;;;2341990;53;21817;-67
2023/09/30 05:23:49;;;;;;;3.20;1.00;;;20.30;57.60;;;;;;2588940;52;20984;-67
2023/09/30 05:26:16;;;;;;;2.60;1.15;;;20.30;57.70;;;;;;2588847;52;20904;-67
2023/09/30 05:28:43;;;;;;;2.70;0.93;;;20.30;57.80;;;;;;2342735;53;21131;-67
2023/09/30 05:31:11;;;;;;;3.10;1.10;;;20.30;57.80;;;;;;2588817;52;20920;-66
2023/09/30 05:33:37;;;;;;;3.03;1.17;;;20.30;57.80;;;;;;2601532;53;21644;-68
2023/09/30 05:36:04;;;;;;;3.03;1.00;;;20.30;57.70;;;;;;2593073;52;21302;-67
2023/09/30 05:38:31;;;;;;;2.95;1.00;;;20.30;57.70;;;;;;2342152;53;21378;-69
2023/09/30 05:41:01;;;;;;;3.42;1.10;;;20.30;57.70;;;;;;2344129;53;20949;-67
2023/09/30 05:43:27;;;;;;;2.70;0.90;;;20.30;57.70;;;;;;2359853;53;21021;-67
2023/09/30 05:45:54;;;;;;;3.35;1.00;;;20.30;57.80;;;;;;2589068;52;21438;-68
2023/09/30 05:48:23;;;;;;;2.95;0.80;;;20.30;57.90;;;;;;2606840;52;21985;-66
2023/09/30 05:50:50;;;;;;;3.03;0.90;;;20.30;57.80;;;;;;2588910;52;21083;-66
2023/09/30 05:53:25;;;;;;;2.67;0.85;;;20.30;57.80;;;;;;2342699;53;20980;-67
2023/09/30 05:55:51;;;;;;;3.90;1.10;;;20.30;57.80;;;;;;2342770;53;21028;-69
2023/09/30 05:58:18;;;;;;;2.78;0.80;;;20.30;57.80;;;;;;2589008;52;21261;-67
2023/09/30 06:00:45;;;;;;;3.30;1.30;;;20.30;57.90;;;;;;2342609;53;21003;-66
2023/09/30 06:03:12;;;;;;;2.58;1.00;;;20.30;58.00;;;;;;2342058;53;20929;-67
2023/09/30 06:05:40;;;;;;;2.53;0.88;;;20.30;58.00;;;;;;2588824;52;20996;-66
2023/09/30 06:08:10;;;;;;;2.80;1.00;;;20.30;58.00;;;;;;2343033;53;20941;-67
2023/09/30 06:10:42;;;;;;;3.42;1.12;;;20.30;58.00;;;;;;2587611;52;20977;-67
2023/09/30 06:13:11;;;;;;;2.75;1.00;;;20.30;58.00;;;;;;2588353;52;21523;-67
2023/09/30 06:15:40;;;;;;;3.53;1.20;;;20.30;58.00;;;;;;2601027;52;20983;-67
2023/09/30 06:18:06;;;;;;;3.97;1.30;;;20.30;58.10;;;;;;2595565;52;20957;-67
2023/09/30 06:20:33;;;;;;;3.35;1.00;;;20.30;58.10;;;;;;2342216;53;21065;-67
2023/09/30 06:23:03;;;;;;;2.40;0.80;;;20.30;58.10;;;;;;2588841;52;20928;-67
2023/09/30 06:25:30;;;;;;;2.50;0.77;;;20.30;58.70;;;;;;2342375;53;20921;-67
2023/09/30 06:27:59;;;;;;;3.40;1.20;;;20.40;58.20;;;;;;2614298;52;20965;-67
2023/09/30 06:30:33;;;;;;;2.72;0.98;;;20.30;58.20;;;;;;2370024;53;21066;-67
2023/09/30 06:33:00;;;;;;;2.55;0.90;;;20.40;58.20;;;;;;2370712;53;20954;-66
2023/09/30 06:35:27;;;;;;;2.17;0.80;;;20.40;58.20;;;;;;2622561;52;21018;-70
2023/09/30 06:37:58;;;;;;;2.40;0.90;;;20.40;58.20;;;;;;2622624;52;21021;-67
2023/09/30 06:40:24;;;;;;;2.15;0.90;;;20.40;58.20;;;;;;2373592;53;21022;-67
2023/09/30 06:42:51;;;;;;;2.53;0.80;;;20.50;58.20;;;;;;2363216;53;20973;-67
2023/09/30 06:45:18;;;;;;;3.83;1.00;;;20.40;58.10;;;;;;2372790;53;21468;-67
2023/09/30 06:47:45;;;;;;;4.62;1.00;;;20.40;58.20;;;;;;2611771;52;20935;-67
2023/09/30 06:50:16;;;;;;;4.25;1.37;;;20.40;58.30;;;;;;2353745;53;21589;-67
2023/09/30 06:52:42;;;;;;;4.07;1.17;;;20.40;58.40;;;;;;2595051;52;20950;-69
2023/09/30 06:55:09;;;;;;;2.92;1.00;;;20.50;59.20;;;;;;2590193;52;20994;-67
2023/09/30 06:57:40;;;;;;;3.35;1.05;;;20.50;58.60;;;;;;2587491;52;20934;-67
2023/09/30 07:00:11;;;;;;;2.55;1.08;;;20.50;58.50;;;;;;2589682;52;20910;-67
2023/09/30 07:02:38;;;;;;;3.22;1.20;;;20.50;58.50;;;;;;2343327;53;21341;-69
2023/09/30 07:05:14;;;;;;;3.33;1.35;;;20.50;58.50;;;;;;2591820;52;20994;-69
2023/09/30 07:07:43;;;;;;;2.92;1.05;;;20.50;58.70;;;;;;2589538;52;21708;-68
2023/09/30 07:10:11;;;;;;;3.75;1.23;;;20.50;58.50;;;;;;2588914;52;20950;-67
2023/09/30 07:12:37;;;;;;;4.68;1.20;;;20.50;58.40;;;;;;2588261;52;20926;-68
2023/09/30 07:15:08;;;;;;;3.83;1.40;;;20.60;58.50;;;;;;2589685;52;20930;-67
2023/09/30 07:17:34;;;;;;;3.35;1.25;;;20.60;58.60;;;;;;2341908;53;20996;-67
2023/09/30 07:20:01;;;;;;;3.80;1.37;;;20.60;58.60;;;;;;2594731;52;21006;-71
2023/09/30 07:22:31;;;;;;;2.65;1.05;;;20.60;58.70;;;;;;2615484;52;20990;-69
2023/09/30 07:25:01;;;;;;;3.25;1.30;;;20.60;58.70;;;;;;2612861;52;20969;-70
2023/09/30 07:27:27;;;;;;;4.32;1.40;;;20.70;58.80;;;;;;2593901;52;20942;-71
2023/09/30 07:29:55;;;;;;;2.75;1.05;;;20.70;58.80;;;;;;2589152;52;20985;-70
2023/09/30 07:32:23;;;;;;;4.40;1.48;;;20.70;58.70;;;;;;2347664;53;20958;-72
2023/09/30 07:34:50;;;;;;;3.80;1.35;;;20.70;58.70;;;;;;2592321;52;21337;-70
2023/09/30 07:37:17;;;;;;;2.75;1.10;;;20.70;58.70;;;;;;2343170;53;21046;-71
2023/09/30 07:39:44;;;;;;;2.95;1.08;;;20.70;58.70;;;;;;2592324;52;21007;-69
2023/09/30 07:42:10;;;;;;;3.90;1.33;;;20.80;58.80;;;;;;2343217;53;21354;-69
2023/09/30 07:44:39;;;;;;;3.60;1.40;;;20.80;58.80;;;;;;2588822;52;20902;-69
2023/09/30 07:47:09;;;;;;;3.67;1.37;;;20.80;58.90;;;;;;2589707;52;20963;-72
2023/09/30 07:49:35;;;;;;;3.87;1.40;;;20.80;58.90;;;;;;2588752;52;21285;-69
2023/09/30 07:52:03;;;;;;;3.92;1.37;;;20.80;59.50;;;;;;2343042;53;20934;-67
2023/09/30 07:54:29;;;;;;;3.40;1.50;;;20.90;59.00;;;;;;2605438;52;21453;-71
2023/09/30 07:56:58;;;;;;;4.50;1.73;;;20.90;58.90;;;;;;2343717;53;20912;-69
2023/09/30 07:59:25;;;;;;;3.53;1.70;;;20.90;58.90;;;;;;2589706;52;20977;-72
2023/09/30 08:01:56;;;;;;;3.80;1.45;;;20.90;58.80;;;;;;2589836;52;21044;-70
2023/09/30 08:04:23;;;;;;;4.93;1.60;;;21.00;58.80;;;;;;2589714;52;20972;-68
2023/09/30 08:06:50;;;;;;;3.28;1.25;;;21.00;58.80;;;;;;2589182;52;21314;-69
2023/09/30 08:09:18;;;;;;;3.12;1.30;;;21.00;58.90;;;;;;2590192;52;20917;-69
2023/09/30 08:11:44;;;;;;;3.78;1.60;;;21.00;58.90;;;;;;2588821;52;20920;-70
2023/09/30 08:14:11;;;;;;;3.67;1.40;;;21.00;59.00;;;;;;2589730;52;21259;-69
2023/09/30 08:16:38;;;;;;;3.67;1.77;;;21.10;59.00;;;;;;2589031;52;21409;-68
2023/09/30 08:19:13;;;;;;;3.33;1.30;;;21.10;59.00;;;;;;2604153;52;20961;-70
2023/09/30 08:21:39;;;;;;;5.60;1.67;;;21.10;59.10;;;;;;2344774;53;21000;-70
2023/09/30 08:24:08;;;;;;;3.90;1.40;;;21.20;59.20;;;;;;2352925;53;20962;-71
2023/09/30 08:26:39;;;;;;;;;;;21.20;59.30;;;;;;2605547;52;20941;-69
2023/09/30 08:29:06;;;;;;;2.25;0.90;;;21.30;59.50;;;;;;2588970;52;20126;-68
2023/09/30 08:31:32;;;;;;;2.40;0.90;;;21.30;59.20;;;;;;2342051;53;20929;-67
2023/09/30 08:33:59;;;;;;;4.40;1.50;;;21.30;59.20;;;;;;2342604;53;20937;-67
2023/09/30 08:36:25;;;;;;;3.22;1.30;;;21.40;59.30;;;;;;2343192;53;20897;-70
2023/09/30 08:38:51;;;;;;;4.20;1.42;;;21.40;59.10;;;;;;2589279;52;21080;-70
2023/09/30 08:41:31;;;;;;;3.30;1.30;;;21.50;59.20;;;;;;2343434;53;20913;-67
2023/09/30 08:44:02;;;;;;;4.70;1.58;;;21.50;59.20;;;;;;2343478;53;20908;-69
2023/09/30 08:46:33;;;;;;;4.87;1.65;;;21.60;59.20;;;;;;2588778;52;20930;-67
2023/09/30 08:49:04;;;;;;;4.10;1.25;;;21.60;59.20;;;;;;2371293;53;21802;-66
2023/09/30 08:51:30;;;;;;;3.08;1.02;;;21.60;59.20;;;;;;2363128;53;20938;-67
2023/09/30 08:53:57;;;;;;;4.22;1.50;;;21.70;59.30;;;;;;2357611;53;20935;-66
2023/09/30 08:56:27;;;;;;;3.45;1.33;;;21.70;59.20;;;;;;2344989;53;20943;-69
2023/09/30 08:58:58;;;;;;;3.83;1.23;;;21.80;59.40;;;;;;2369869;53;20927;-71
2023/09/30 09:01:27;;;;;;;4.00;1.67;;;21.80;59.50;;;;;;2594140;52;20978;-67
2023/09/30 09:03:55;;;;;;;4.15;1.35;;;21.90;59.70;;;;;;2616460;52;21016;-67
2023/09/30 09:06:23;;;;;;;4.15;1.50;;;21.90;59.60;;;;;;2352094;53;20903;-67
2023/09/30 09:08:50;;;;;;;4.35;1.50;;;22.00;59.60;;;;;;2623244;52;20902;-69
2023/09/30 09:11:17;;;;;;;3.33;1.20;;;22.10;59.50;;;;;;2371366;53;20934;-67
2023/09/30 09:13:53;;;;;;;3.08;1.05;;;22.10;59.40;;;;;;2621022;52;20918;-67
2023/09/30 09:16:20;;;;;;;4.12;1.27;;;22.20;59.30;;;;;;2622777;52;21009;-67
2023/09/30 09:18:47;;;;;;;2.60;1.05;;;22.20;59.30;;;;;;2369462;53;20922;-68
2023/09/30 09:21:18;;;;;;;3.47;1.10;;;22.30;59.20;;;;;;2352763;53;21022;-67
2023/09/30 09:23:45;;;;;;;1.70;0.65;;;22.30;59.00;;;;;;2618191;52;20926;-66
2023/09/30 09:26:35;;;;;;;5.53;1.00;;;22.40;58.90;;;;;;2623054;52;20938;-67
2023/09/30 09:29:02;;;;;;;2.95;1.00;;;22.50;58.80;;;;;;2370723;54;20918;-67
2023/09/30 09:31:36;;;;;;;2.75;0.90;;;22.50;58.70;;;;;;2623192;52;20922;-66
2023/09/30 09:34:04;;;;;;;3.10;1.05;;;22.60;58.80;;;;;;2371103;53;20950;-67
2023/09/30 09:36:44;;;;;;;2.45;0.82;;;22.60;58.80;;;;;;2352165;53;20921;-66
2023/09/30 09:39:13;;;;;;;3.47;1.00;;;22.60;58.50;;;;;;2596949;52;20936;-67
2023/09/30 09:41:50;;;;;;;3.20;1.10;;;22.70;58.50;;;;;;2589738;52;20980;-66
2023/09/30 09:44:16;;;;;;;3.20;1.00;;;22.70;58.20;;;;;;2604192;53;20948;-67
2023/09/30 09:46:43;;;;;;;2.03;0.75;;;22.80;58.30;;;;;;2342071;53;21227;-69
2023/09/30 09:49:10;;;;;;;1.90;0.68;;;22.80;58.20;;;;;;2343727;53;20981;-69
2023/09/30 09:51:38;;;;;;;2.03;0.75;;;22.80;58.10;;;;;;2588406;52;20925;-66
2023/09/30 09:54:07;;;;;;;4.00;1.00;;;22.90;58.00;;;;;;2588567;52;20986;-66
2023/09/30 09:56:34;;;;;;;3.05;1.20;;;22.90;57.80;;;;;;2342209;53;20941;-67
2023/09/30 09:59:01;;;;;;;1.80;0.80;;;23.00;57.70;;;;;;2343279;54;20956;-67
2023/09/30 10:01:28;;;;;;;2.50;1.00;;;23.00;57.50;;;;;;2342370;54;21553;-66
2023/09/30 10:03:59;;;;;;;3.30;1.10;;;23.10;57.50;;;;;;2369359;53;20908;-71
2023/09/30 10:06:25;;;;;;;3.30;1.10;;;23.10;57.50;;;;;;2370724;53;21063;-68
2023/09/30 10:08:52;;;;;;;4.15;0.90;;;23.20;57.60;;;;;;2370051;53;20941;-66
2023/09/30 10:11:18;;;;;;;3.83;1.20;;;23.20;57.60;;;;;;2350382;53;20950;-66
2023/09/30 10:14:00;;;;;;;3.62;1.30;;;23.20;57.40;;;;;;2369938;53;21010;-66
2023/09/30 10:19:10;;;;;;;2.92;1.08;;;23.30;57.30;;;;;;2622173;52;20965;-68
2023/09/30 10:21:36;;;;;;;2.05;0.80;;;23.40;57.20;;;;;;2345548;53;21481;-66
2023/09/30 10:31:12;;;;;;;2.17;0.80;;;23.40;57.20;;;;;;2343109;53;20908;-67
2023/09/30 10:34:15;;;;;;;4.00;1.10;;;23.60;56.90;;;;;;2342242;53;21489;-69
2023/09/30 10:36:41;;;;;;;4.00;1.40;;;23.60;56.20;;;;;;2342335;53;21950;-68
2023/09/30 10:39:14;;;;;;;4.18;1.37;;;23.60;56.60;;;;;;2589494;52;21005;-67
2023/09/30 10:41:59;;;;;;;4.07;1.60;;;23.70;56.40;;;;;;2588567;52;20921;-71
2023/09/30 10:44:35;;;;;;;4.32;1.52;;;23.60;56.00;;;;;;2589130;52;20969;-70
2023/09/30 10:53:51;;;;;;;5.00;1.83;;;23.70;56.20;;;;;;2589636;52;21008;-68
2023/09/30 10:56:19;;;;;;;5.78;1.70;;;23.80;56.00;;;;;;2342993;53;20925;-67
2023/09/30 10:58:52;;;;;;;4.43;1.60;;;23.80;55.90;;;;;;2589151;52;20925;-67
2023/09/30 11:01:20;;;;;;;4.75;1.58;;;23.80;55.60;;;;;;2589186;52;20992;-68
2023/09/30 11:03:46;;;;;;;6.85;1.45;;;23.80;55.70;;;;;;2589235;52;20938;-68
2023/09/30 11:06:17;;;;;;;3.53;1.42;;;23.70;55.70;;;;;;2343055;53;20921;-72
2023/09/30 11:08:51;;;;;;;4.07;1.42;;;23.90;55.60;;;;;;2588236;52;21031;-70
2023/09/30 11:11:18;;;;;;;4.40;1.60;;;23.90;55.30;;;;;;2589168;52;20937;-70
2023/09/30 11:13:44;;;;;;;4.37;1.62;;;23.90;55.50;;;;;;2593117;52;21010;-68
2023/09/30 11:16:10;;;;;;;4.47;1.70;;;23.90;55.40;;;;;;2353292;53;20925;-69
2023/09/30 11:18:39;;;;;;;4.82;2.10;;;24.00;55.20;;;;;;2341646;53;21469;-68
2023/09/30 11:21:14;;;;;;;6.75;2.03;;;24.00;55.20;;;;;;2341960;53;21032;-68
2023/09/30 11:23:41;;;;;;;5.72;2.10;;;24.00;55.00;;;;;;2599468;52;20970;-68
2023/09/30 11:26:07;;;;;;;6.75;2.30;;;24.10;55.10;;;;;;2371785;53;21041;-71
2023/09/30 11:28:41;;;;;;;7.22;2.62;;;24.10;55.00;;;;;;2369939;53;20958;-68
2023/09/30 11:31:10;;;;;;;6.35;2.60;;;24.10;54.50;;;;;;2370816;53;20945;-71
2023/09/30 11:33:52;;;;;;;6.65;2.45;;;24.10;54.50;;;;;;2622113;52;20953;-71
2023/09/30 11:36:20;;;;;;;6.18;2.70;;;24.20;54.00;;;;;;2622544;52;20910;-68
2023/09/30 11:38:48;;;;;;;5.72;2.65;;;24.20;54.40;;;;;;2370385;53;20942;-68
2023/09/30 11:41:17;;;;;;;5.68;2.62;;;24.20;54.10;;;;;;2622157;52;20981;-68
2023/09/30 11:44:10;;;;;;;6.85;2.53;;;24.30;54.10;;;;;;2369412;53;20935;-68
2023/09/30 11:47:08;;;;;;;5.37;2.35;;;24.30;53.70;;;;;;2368870;53;20917;-69
2023/09/30 11:49:37;;;;;;;5.40;2.25;;;24.30;53.60;;;;;;2614500;52;20941;-68
2023/09/30 11:52:08;;;;;;;5.70;2.47;;;24.40;54.00;;;;;;2618368;52;20941;-68
2023/09/30 11:54:39;;;;;;;5.15;2.10;;;24.40;53.80;;;;;;2621774;52;20950;-70
2023/09/30 11:57:18;;;;;;;4.72;1.92;;;24.40;53.70;;;;;;2370385;53;20935;-68
2023/09/30 11:59:45;;;;;;;5.30;2.03;;;24.40;53.60;;;;;;2623038;52;20982;-67
2023/09/30 12:02:14;;;;;;;7.50;2.37;;;24.40;53.50;;;;;;2366182;53;20961;-70
2023/09/30 12:04:44;;;;;;;6.32;2.87;;;24.50;53.30;;;;;;2622789;52;20910;-68
2023/09/30 12:07:11;;;;;;;6.87;3.00;;;24.50;53.30;;;;;;2622633;52;20938;-70
2023/09/30 12:09:39;;;;;;;7.35;2.53;;;24.50;53.40;;;;;;2370208;53;20918;-69
2023/09/30 12:12:15;;;;;;;5.95;2.35;;;24.60;53.40;;;;;;2621850;52;20927;-70
2023/09/30 12:14:43;;;;;;;6.80;2.83;;;24.60;53.30;;;;;;2369400;53;20911;-69
2023/09/30 12:17:10;;;;;;;5.75;2.33;;;24.60;53.20;;;;;;2370525;53;20895;-70
2023/09/30 12:19:37;;;;;;;6.60;3.00;;;24.70;53.10;;;;;;2370385;53;20971;-71
2023/09/30 12:22:06;;;;;;;7.75;3.15;;;24.70;52.90;;;;;;2615849;52;20937;-65
2023/09/30 12:24:32;;;;;;;7.00;2.78;;;24.70;52.80;;;;;;2367158;53;20926;-68
2023/09/30 12:26:59;;;;;;;6.60;2.90;;;24.80;52.80;;;;;;2369794;53;20911;-66
2023/09/30 12:29:25;;;;;;;6.28;2.67;;;24.80;52.80;;;;;;2370243;53;20962;-67
2023/09/30 12:31:52;;;;;;;5.97;2.50;;;24.80;52.70;;;;;;2365402;53;21012;-67
2023/09/30 12:34:19;;;;;;;5.55;2.25;;;24.80;52.70;;;;;;2623029;52;20993;-66
2023/09/30 12:36:47;;;;;;;8.18;2.92;;;24.90;52.90;;;;;;2365156;54;20929;-67
2023/09/30 12:39:16;;;;;;;5.60;2.47;;;24.90;52.80;;;;;;2622468;52;20942;-68
2023/09/30 12:41:43;;;;;;;6.60;2.55;;;25.00;52.70;;;;;;2369617;53;20898;-67
2023/09/30 12:44:11;;;;;;;6.78;3.08;;;25.00;52.70;;;;;;2621525;52;20899;-70
2023/09/30 12:46:39;;;;;;;7.68;3.20;;;25.10;52.60;;;;;;2369993;53;20915;-69
2023/09/30 12:49:08;;;;;;;7.28;3.20;;;25.20;52.30;;;;;;2368878;53;20942;-66
2023/09/30 12:51:35;;;;;;;7.18;3.25;;;25.20;51.90;;;;;;2370229;53;21617;-66
2023/09/30 12:54:01;;;;;;;6.40;2.95;;;25.20;51.80;;;;;;2370162;53;20930;-67
2023/09/30 12:56:30;;;;;;;7.57;3.10;;;25.20;51.70;;;;;;2370063;53;21493;-68
2023/09/30 12:58:57;;;;;;;7.65;3.25;;;25.20;51.60;;;;;;2623107;52;20913;-67
2023/09/30 13:01:23;;;;;;;8.45;3.50;;;25.30;51.50;;;;;;2367046;53;20933;-66
2023/09/30 13:03:49;;;;;;;8.70;3.65;;;25.20;51.20;;;;;;2368498;53;21400;-67
2023/09/30 13:06:16;;;;;;;8.07;3.70;;;25.20;51.20;;;;;;2623140;52;20950;-68
2023/09/30 13:08:46;;;;;;;8.40;3.37;;;25.30;51.20;;;;;;2622345;52;21012;-67
2023/09/30 13:11:13;;;;;;;6.12;2.70;;;25.30;50.90;;;;;;2369997;53;20954;-68
2023/09/30 13:13:39;;;;;;;6.78;2.72;;;25.30;50.90;;;;;;2622292;52;20930;-68
2023/09/30 13:16:07;;;;;;;8.93;3.60;;;25.30;50.80;;;;;;2368936;53;20918;-67
2023/09/30 13:18:33;;;;;;;7.12;3.12;;;25.30;50.70;;;;;;2613473;52;20977;-71
2023/09/30 13:21:00;;;;;;;8.30;3.33;;;25.40;50.60;;;;;;2368398;53;21795;-69
2023/09/30 13:23:27;;;;;;;8.27;3.40;;;25.40;50.50;;;;;;2622521;52;21162;-71
2023/09/30 13:25:53;;;;;;;8.88;4.07;;;25.40;50.40;;;;;;2622346;52;20990;-67
2023/09/30 13:28:20;;;;;;;8.43;4.00;;;25.30;50.20;;;;;;2370026;53;20978;-67
2023/09/30 13:30:48;;;;;;;8.88;3.78;;;25.30;50.00;;;;;;2622166;52;20984;-68
2023/09/30 13:33:14;;;;;;;9.23;3.70;;;25.40;50.00;;;;;;2622626;52;20930;-69
2023/09/30 13:35:40;;;;;;;8.95;3.50;;;25.30;50.00;;;;;;2370305;53;21049;-70
2023/09/30 13:38:08;;;;;;;7.25;3.33;;;25.30;49.90;;;;;;2335020;54;21082;-67